Time;durP1;ratioP1;P1;durP2;ratioP2;P2;SDS_P1;SDS_P2;PMS_P1;PMS_P2;Temp;Humidity;BMP_temperature;BMP_pressure;BME280_temperature;BME280_humidity;BME280_pressure;Samples;Min_cycle;Max_cycle;Signal;HPM_P1;HPM_P2
2024/01/14 00:00:10;;;;;;;41.58;18.58;;;;;;;-0.82;90.87;99930.81;5077797;28;20092;-49
2024/01/14 00:02:40;;;;;;;43.22;18.33;;;;;;;-0.82;90.20;99941.28;5076333;28;20049;-44
2024/01/14 00:05:12;;;;;;;36.95;16.67;;;;;;;-0.82;90.50;99938.66;5075780;28;20130;-45
2024/01/14 00:07:43;;;;;;;40.67;16.77;;;;;;;-0.74;90.27;99939.38;5076185;28;20094;-44
2024/01/14 00:10:11;;;;;;;39.28;15.93;;;;;;;-0.74;89.36;99936.75;5076723;28;20048;-44
2024/01/14 00:12:40;;;;;;;39.88;16.95;;;;;;;-0.76;89.50;99956.88;5077411;28;20044;-45
2024/01/14 00:15:10;;;;;;;37.28;15.63;;;;;;;-0.77;89.17;99944.69;5077133;28;20048;-44
2024/01/14 00:17:39;;;;;;;36.45;15.93;;;;;;;-0.99;90.50;99938.09;5077669;28;20485;-44
2024/01/14 00:20:10;;;;;;;39.22;16.38;;;;;;;-0.88;89.40;99942.25;5076629;28;20098;-44
2024/01/14 00:22:41;;;;;;;35.03;15.27;;;;;;;-0.94;89.20;99939.75;5075565;28;20135;-42
2024/01/14 00:25:11;;;;;;;34.58;14.43;;;;;;;-1.04;89.83;99924.25;5075480;28;20087;-44
2024/01/14 00:27:40;;;;;;;29.70;11.45;;;;;;;-1.17;86.33;99919.22;5075143;28;20052;-43
2024/01/14 00:30:10;;;;;;;27.13;12.75;;;;;;;-1.14;86.43;99927.91;5075409;28;20071;-43
2024/01/14 00:32:39;;;;;;;28.73;12.85;;;;;;;-1.10;86.58;99924.34;5074444;28;20484;-42
2024/01/14 00:35:10;;;;;;;28.48;13.45;;;;;;;-1.06;86.06;99920.75;5076157;28;20493;-43
2024/01/14 00:37:39;;;;;;;33.28;13.13;;;;;;;-1.10;86.49;99913.88;5076513;28;20045;-43
2024/01/14 00:40:11;;;;;;;27.63;12.38;;;;;;;-1.08;87.09;99923.41;5076336;28;20417;-43
2024/01/14 00:42:39;;;;;;;26.73;12.32;;;;;;;-1.00;86.36;99920.66;5074563;28;20067;-46
2024/01/14 00:45:10;;;;;;;30.40;13.45;;;;;;;-0.89;86.39;99923.94;5075044;28;20511;-43
2024/01/14 00:47:38;;;;;;;28.08;12.90;;;;;;;-0.97;86.07;99928.47;5074880;28;20045;-53
2024/01/14 00:50:07;;;;;;;27.90;12.57;;;;;;;-0.93;85.19;99933.63;5074496;28;20058;-43
2024/01/14 00:52:35;;;;;;;30.75;13.45;;;;;;;-0.95;84.65;99922.31;5074254;28;20199;-45
2024/01/14 00:55:05;;;;;;;30.73;12.95;;;;;;;-1.04;84.88;99919.00;5075183;28;20102;-43
2024/01/14 00:57:33;;;;;;;31.23;13.27;;;;;;;-1.05;85.67;99918.16;5074599;28;20131;-42
2024/01/14 01:00:02;;;;;;;28.60;12.70;;;;;;;-1.02;85.53;99896.28;5074289;28;20142;-43
2024/01/14 01:02:32;;;;;;;29.60;13.18;;;;;;;-0.92;86.07;99885.59;5074117;28;20052;-43
2024/01/14 01:05:00;;;;;;;29.75;13.13;;;;;;;-0.98;85.88;99877.84;5074198;28;20624;-44
2024/01/14 01:07:29;;;;;;;28.40;13.38;;;;;;;-0.90;85.83;99875.09;5073808;28;20049;-44
2024/01/14 01:10:00;;;;;;;31.88;12.95;;;;;;;-0.94;85.52;99868.19;5074631;28;20048;-43
2024/01/14 01:12:29;;;;;;;28.85;12.57;;;;;;;-0.99;85.38;99867.41;5074525;28;20044;-43
2024/01/14 01:14:57;;;;;;;26.08;12.75;;;;;;;-1.00;85.62;99860.47;5073793;28;20102;-42
2024/01/14 01:17:26;;;;;;;26.92;12.85;;;;;;;-1.03;85.69;99882.31;5073867;28;20135;-43
2024/01/14 01:19:56;;;;;;;29.90;12.90;;;;;;;-0.98;85.79;99872.63;5073672;28;20049;-43
2024/01/14 01:22:24;;;;;;;27.45;13.48;;;;;;;-0.99;85.85;99865.66;5073911;28;20472;-43
2024/01/14 01:24:53;;;;;;;29.27;14.00;;;;;;;-1.02;85.04;99862.25;5073408;28;20053;-43
2024/01/14 01:27:21;;;;;;;27.30;13.57;;;;;;;-1.01;85.54;99861.34;5073687;28;20072;-41
2024/01/14 01:29:52;;;;;;;29.50;12.82;;;;;;;-0.94;85.49;99866.44;5072884;28;20110;-42
2024/01/14 01:32:21;;;;;;;25.98;12.80;;;;;;;-1.13;85.48;99859.84;5073716;28;20040;-41
2024/01/14 01:34:50;;;;;;;29.67;12.55;;;;;;;-1.11;85.50;99847.56;5073363;28;20052;-42
2024/01/14 01:37:20;;;;;;;33.60;14.55;;;;;;;-1.06;85.70;99843.13;5073180;28;20136;-42
2024/01/14 01:39:48;;;;;;;29.33;13.80;;;;;;;-1.06;85.47;99843.13;5071665;28;20188;-43
2024/01/14 01:42:17;;;;;;;26.08;13.10;;;;;;;-1.18;85.39;99841.59;5073205;28;20481;-43
2024/01/14 01:44:45;;;;;;;26.98;13.45;;;;;;;-1.04;85.68;99827.38;5073867;28;20058;-43
2024/01/14 01:47:16;;;;;;;28.40;13.20;;;;;;;-0.97;85.57;99816.75;5073648;28;20045;-45
2024/01/14 01:49:44;;;;;;;30.35;12.95;;;;;;;-1.16;85.81;99828.47;5072841;28;20045;-44
2024/01/14 01:52:15;;;;;;;30.20;14.20;;;;;;;-1.29;86.07;99838.31;5072490;28;20056;-43
2024/01/14 01:54:48;;;;;;;28.73;13.05;;;;;;;-1.16;85.50;99842.44;5072852;28;20468;-42
2024/01/14 01:57:18;;;;;;;24.35;11.98;;;;;;;-1.12;84.99;99831.91;5072633;28;20490;-43
2024/01/14 01:59:47;;;;;;;27.85;13.18;;;;;;;-1.18;85.18;99828.50;5073273;28;20413;-42
2024/01/14 02:02:16;;;;;;;30.27;13.32;;;;;;;-1.15;86.02;99830.22;5073224;28;20415;-42
2024/01/14 02:04:46;;;;;;;29.30;13.25;;;;;;;-1.32;85.62;99830.53;5072421;28;20079;-44
2024/01/14 02:07:15;;;;;;;27.60;12.35;;;;;;;-1.38;85.85;99820.16;5072953;28;20056;-45
2024/01/14 02:09:45;;;;;;;24.92;11.98;;;;;;;-1.32;85.65;99809.59;5072544;28;20482;-43
2024/01/14 02:12:14;;;;;;;27.38;12.50;;;;;;;-1.33;86.21;99807.88;5073375;28;20458;-43
2024/01/14 02:14:43;;;;;;;25.08;12.05;;;;;;;-1.33;85.19;99796.56;5073317;28;20051;-42
2024/01/14 02:17:12;;;;;;;28.08;12.48;;;;;;;-1.46;86.14;99806.34;5072649;28;20051;-42
2024/01/14 02:19:42;;;;;;;27.85;12.77;;;;;;;-1.31;86.46;99816.56;5073153;28;20396;-44
2024/01/14 02:22:21;;;;;;;27.50;13.07;;;;;;;-1.38;86.52;99812.31;5073061;28;20047;-43
2024/01/14 02:24:53;;;;;;;24.70;12.07;;;;;;;-1.39;86.48;99797.50;5072693;28;20408;-43
2024/01/14 02:27:21;;;;;;;24.65;11.68;;;;;;;-1.49;87.09;99796.81;5072625;28;20084;-43
2024/01/14 02:29:50;;;;;;;28.65;13.13;;;;;;;-1.46;86.75;99796.75;5072563;28;20049;-43
2024/01/14 02:32:18;;;;;;;25.15;12.68;;;;;;;-1.55;87.11;99790.84;5073123;28;20044;-43
2024/01/14 02:34:49;;;;;;;27.77;12.48;;;;;;;-1.54;86.27;99795.19;5072716;28;20048;-42
2024/01/14 02:37:18;;;;;;;24.73;11.70;;;;;;;-1.56;86.44;99794.34;5072907;28;20052;-46
2024/01/14 02:39:46;;;;;;;27.38;13.05;;;;;;;-1.60;87.40;99797.91;5075077;28;20044;-46
2024/01/14 02:42:16;;;;;;;25.08;12.52;;;;;;;-1.48;87.10;99800.31;5076576;28;20478;-43
2024/01/14 02:44:45;;;;;;;26.85;12.13;;;;;;;-1.57;86.57;99803.94;5076592;28;20056;-42
2024/01/14 02:47:13;;;;;;;27.05;13.05;;;;;;;-1.79;88.23;99798.25;5076510;28;20049;-45
2024/01/14 02:49:42;;;;;;;27.08;13.30;;;;;;;-1.79;88.94;99800.00;5076309;28;20055;-44
2024/01/14 02:52:10;;;;;;;30.35;13.88;;;;;;;-1.99;89.10;99784.66;5076042;28;20488;-45
2024/01/14 02:54:39;;;;;;;29.88;14.00;;;;;;;-1.99;89.84;99795.09;5075191;28;20482;-43
2024/01/14 02:57:08;;;;;;;27.73;12.80;;;;;;;-1.89;90.93;99794.06;5077407;28;20052;-42
2024/01/14 02:59:38;;;;;;;31.90;13.63;;;;;;;-1.82;90.78;99790.47;5077152;28;20412;-44
2024/01/14 03:02:07;;;;;;;27.15;12.13;;;;;;;-1.86;90.25;99780.06;5073955;28;20066;-42
2024/01/14 03:04:35;;;;;;;28.90;13.25;;;;;;;-1.69;89.56;99769.31;5071854;28;20072;-44
2024/01/14 03:07:04;;;;;;;25.17;12.30;;;;;;;-1.66;89.32;99771.88;5071942;28;20084;-45
2024/01/14 03:09:35;;;;;;;24.27;11.38;;;;;;;-1.76;88.60;99772.03;5071436;28;20051;-43
2024/01/14 03:12:04;;;;;;;25.23;12.82;;;;;;;-1.72;89.09;99770.25;5072886;28;20049;-43
2024/01/14 03:14:34;;;;;;;25.42;12.70;;;;;;;-1.64;89.37;99770.06;5072382;28;20079;-44
2024/01/14 03:17:04;;;;;;;26.15;12.52;;;;;;;-1.73;89.82;99765.91;5071506;28;20135;-44
2024/01/14 03:19:32;;;;;;;29.30;12.63;;;;;;;-1.76;90.96;99764.19;5071778;28;20045;-42
2024/01/14 03:22:01;;;;;;;27.13;13.23;;;;;;;-1.62;90.03;99757.84;5071850;28;20068;-43
2024/01/14 03:24:29;;;;;;;23.70;12.23;;;;;;;-1.57;89.63;99761.22;5072568;28;20080;-43
2024/01/14 03:26:58;;;;;;;27.48;12.93;;;;;;;-1.55;88.18;99764.69;5071941;28;20044;-44
2024/01/14 03:29:26;;;;;;;29.10;12.75;;;;;;;-1.46;88.79;99761.88;5071248;28;20135;-43
2024/01/14 03:31:55;;;;;;;26.30;12.23;;;;;;;-1.48;88.22;99753.22;5071738;28;20048;-43
2024/01/14 03:34:25;;;;;;;28.20;12.82;;;;;;;-1.61;89.16;99751.72;5071741;28;20101;-42
2024/01/14 03:36:53;;;;;;;28.65;13.15;;;;;;;-1.52;89.29;99744.56;5071294;28;20136;-45
2024/01/14 03:39:22;;;;;;;25.27;12.18;;;;;;;-1.58;89.17;99746.44;5071454;28;20067;-42
2024/01/14 03:41:50;;;;;;;24.95;11.77;;;;;;;-1.49;88.69;99748.88;5071415;28;20044;-45
2024/01/14 03:44:19;;;;;;;29.77;13.38;;;;;;;-1.57;89.42;99741.16;5072186;28;20549;-42
2024/01/14 03:46:47;;;;;;;30.08;13.35;;;;;;;-1.69;90.14;99751.88;5071070;28;20087;-46
2024/01/14 03:49:18;;;;;;;26.10;12.85;;;;;;;-1.77;91.05;99764.22;5071147;28;20402;-43
2024/01/14 03:51:48;;;;;;;25.27;12.40;;;;;;;-1.79;91.37;99756.41;5071108;28;20490;-42
2024/01/14 03:54:16;;;;;;;26.13;12.52;;;;;;;-1.97;92.37;99756.72;5070403;28;20132;-42
2024/01/14 03:56:45;;;;;;;27.02;12.88;;;;;;;-1.94;93.16;99745.34;5072225;28;20044;-42
2024/01/14 03:59:13;;;;;;;29.35;13.73;;;;;;;-1.96;93.52;99740.16;5071368;28;20089;-43
2024/01/14 04:01:42;;;;;;;23.33;12.60;;;;;;;-2.04;93.59;99747.25;5071052;28;20476;-43
2024/01/14 04:04:11;;;;;;;25.65;12.27;;;;;;;-2.06;95.07;99736.84;5071003;28;20044;-42
2024/01/14 04:06:43;;;;;;;25.40;12.85;;;;;;;-1.91;94.31;99714.81;5072173;28;20131;-43
2024/01/14 04:09:13;;;;;;;29.80;13.73;;;;;;;-1.92;93.95;99727.91;5071788;28;20067;-44
2024/01/14 04:11:44;;;;;;;27.93;12.83;;;;;;;-1.92;93.93;99710.47;5071465;28;20050;-41
2024/01/14 04:14:15;;;;;;;29.45;13.75;;;;;;;-1.92;94.24;99723.53;5071693;28;20056;-43
2024/01/14 04:16:44;;;;;;;28.77;13.40;;;;;;;-1.98;94.26;99713.19;5072340;28;20040;-43
2024/01/14 04:19:12;;;;;;;29.88;13.32;;;;;;;-1.97;94.38;99717.50;5074695;28;20410;-43
2024/01/14 04:21:41;;;;;;;26.73;13.20;;;;;;;-1.92;94.66;99723.53;5074662;28;20539;-44
2024/01/14 04:24:10;;;;;;;31.50;14.38;;;;;;;-1.88;94.05;99717.34;5075265;28;20576;-44
2024/01/14 04:26:39;;;;;;;28.80;13.80;;;;;;;-1.78;93.36;99704.97;5075251;28;20044;-43
2024/01/14 04:29:08;;;;;;;27.95;12.10;;;;;;;-1.76;92.58;99708.41;5074702;28;20098;-42
2024/01/14 04:31:36;;;;;;;27.02;12.82;;;;;;;-1.76;92.52;99713.66;5075354;28;20059;-43
2024/01/14 04:34:05;;;;;;;28.05;13.23;;;;;;;-1.68;92.41;99710.88;5074539;28;20052;-43
2024/01/14 04:36:34;;;;;;;32.00;13.70;;;;;;;-1.66;92.32;99715.19;5074784;28;20138;-42
2024/01/14 04:39:02;;;;;;;25.75;13.02;;;;;;;-1.61;91.53;99707.28;5074819;28;20052;-46
2024/01/14 04:41:31;;;;;;;29.08;13.50;;;;;;;-1.66;91.38;99709.09;5074287;28;20045;-44
2024/01/14 04:44:01;;;;;;;29.85;14.15;;;;;;;-1.65;92.06;99708.22;5074029;28;20553;-44
2024/01/14 04:46:30;;;;;;;29.75;13.02;;;;;;;-1.62;91.53;99695.94;5073274;28;20088;-44
2024/01/14 04:48:58;;;;;;;28.95;13.45;;;;;;;-1.65;91.26;99706.44;5073693;28;20051;-42
2024/01/14 04:51:28;;;;;;;27.65;12.90;;;;;;;-1.58;91.08;99691.50;5074447;28;20056;-44
2024/01/14 04:53:56;;;;;;;30.42;13.30;;;;;;;-1.60;90.98;99698.53;5074387;28;20135;-43
2024/01/14 04:56:25;;;;;;;31.25;12.00;;;;;;;-1.64;91.33;99696.84;5074328;28;20044;-43
2024/01/14 04:58:54;;;;;;;27.48;12.48;;;;;;;-1.62;91.17;99705.56;5073982;28;20060;-44
2024/01/14 05:01:23;;;;;;;28.65;12.85;;;;;;;-1.68;91.36;99700.44;5074169;28;20063;-45
2024/01/14 05:03:52;;;;;;;30.58;14.10;;;;;;;-1.67;91.45;99699.53;5074279;28;20052;-43
2024/01/14 05:06:21;;;;;;;32.70;14.38;;;;;;;-1.67;92.06;99717.84;5073782;28;20049;-43
2024/01/14 05:08:52;;;;;;;33.88;15.48;;;;;;;-1.64;92.09;99708.19;5073699;28;20047;-42
2024/01/14 05:11:20;;;;;;;31.13;15.00;;;;;;;-1.64;92.36;99702.09;5073233;28;20500;-43
2024/01/14 05:13:49;;;;;;;32.10;14.65;;;;;;;-1.59;92.26;99710.72;5073639;28;20091;-43
2024/01/14 05:16:17;;;;;;;34.88;14.15;;;;;;;-1.59;92.42;99713.34;5073943;28;20048;-43
2024/01/14 05:18:50;;;;;;;34.05;14.32;;;;;;;-1.60;92.00;99702.00;5073428;28;20041;-43
2024/01/14 05:21:19;;;;;;;35.67;15.07;;;;;;;-1.54;92.47;99707.13;5073221;28;20441;-43
2024/01/14 05:23:48;;;;;;;35.40;14.77;;;;;;;-1.48;91.94;99703.50;5073313;28;20186;-42
2024/01/14 05:26:17;;;;;;;36.72;15.38;;;;;;;-1.42;92.01;99706.03;5072996;28;20052;-44
2024/01/14 05:28:46;;;;;;;39.83;16.08;;;;;;;-1.32;91.92;99709.31;5071587;28;20531;-44
2024/01/14 05:31:14;;;;;;;33.00;16.05;;;;;;;-1.27;90.62;99707.44;5072927;28;20193;-43
2024/01/14 05:33:42;;;;;;;36.05;15.90;;;;;;;-1.37;91.63;99711.13;5072891;28;20397;-43
2024/01/14 05:36:12;;;;;;;38.40;15.75;;;;;;;-1.40;91.28;99713.84;5073097;28;20123;-43
2024/01/14 05:38:43;;;;;;;35.55;16.23;;;;;;;-1.36;91.79;99698.03;5072866;28;20045;-42
2024/01/14 05:41:13;;;;;;;41.45;17.02;;;;;;;-1.25;91.30;99696.06;5072969;28;20040;-43
2024/01/14 05:43:42;;;;;;;37.40;16.48;;;;;;;-1.26;91.22;99704.78;5074213;28;20057;-42
2024/01/14 05:46:10;;;;;;;38.13;17.30;;;;;;;-1.23;90.67;99707.38;5072852;28;20048;-42
2024/01/14 05:48:39;;;;;;;41.25;17.10;;;;;;;-1.24;90.39;99710.88;5072461;28;20040;-42
2024/01/14 05:51:09;;;;;;;37.97;16.70;;;;;;;-1.25;90.27;99711.78;5072700;28;20067;-43
2024/01/14 05:53:40;;;;;;;40.42;18.20;;;;;;;-1.47;92.11;99692.16;5072236;28;20131;-43
2024/01/14 05:56:10;;;;;;;36.50;16.85;;;;;;;-1.53;92.85;99705.38;5073535;28;20464;-44
2024/01/14 05:58:38;;;;;;;38.05;17.23;;;;;;;-1.57;93.83;99708.94;5073549;28;20068;-42
2024/01/14 06:01:16;;;;;;;43.35;18.13;;;;;;;-1.50;93.72;99710.53;5072361;28;20477;-42
2024/01/14 06:03:45;;;;;;;39.13;16.10;;;;;;;-1.42;93.76;99703.41;5073437;28;20052;-42
2024/01/14 06:06:14;;;;;;;40.75;16.75;;;;;;;-1.35;92.90;99694.53;5073197;28;20132;-42
2024/01/14 06:08:43;;;;;;;41.85;17.35;;;;;;;-1.46;93.90;99696.50;5073097;28;20045;-43
2024/01/14 06:11:13;;;;;;;37.53;17.67;;;;;;;-1.38;93.60;99697.19;5073504;28;20048;-44
2024/01/14 06:13:41;;;;;;;41.25;17.67;;;;;;;-1.40;93.52;99699.00;5073608;28;20094;-42
2024/01/14 06:16:13;;;;;;;40.72;17.40;;;;;;;-1.46;93.70;99696.50;5073464;28;20409;-44
2024/01/14 06:18:42;;;;;;;40.70;17.13;;;;;;;-1.51;94.31;99700.97;5072627;28;20049;-45
2024/01/14 06:21:10;;;;;;;38.63;17.10;;;;;;;-1.51;95.25;99706.19;5072396;28;20076;-45
2024/01/14 06:23:39;;;;;;;42.53;17.50;;;;;;;-1.44;94.23;99699.97;5072303;28;20040;-42
2024/01/14 06:26:16;;;;;;;42.58;18.30;;;;;;;-1.43;94.08;99699.06;5071803;28;20129;-46
2024/01/14 06:28:45;;;;;;;43.83;18.00;;;;;;;-1.42;94.24;99697.31;5072064;28;20123;-42
2024/01/14 06:31:18;;;;;;;42.57;17.17;;;;;;;-1.50;94.47;99694.84;5072550;28;20086;-42
2024/01/14 06:33:46;;;;;;;40.88;17.10;;;;;;;-1.56;95.41;99689.72;5072502;28;20356;-44
2024/01/14 06:36:18;;;;;;;47.55;19.15;;;;;;;-1.53;95.34;99694.91;5072055;28;20405;-44
2024/01/14 06:38:51;;;;;;;43.55;18.58;;;;;;;-1.55;95.40;99688.81;5072145;28;20079;-44
2024/01/14 06:41:23;;;;;;;42.80;17.92;;;;;;;-1.53;95.21;99694.91;5071883;28;20481;-42
2024/01/14 06:43:52;;;;;;;41.87;18.23;;;;;;;-1.53;95.34;99708.00;5072533;28;20049;-43
2024/01/14 06:46:20;;;;;;;47.55;20.83;;;;;;;-1.52;96.49;99709.72;5072209;28;20040;-43
2024/01/14 06:48:48;;;;;;;39.30;18.30;;;;;;;-1.59;96.98;99706.34;5072481;28;20045;-43
2024/01/14 06:51:17;;;;;;;42.83;19.13;;;;;;;-1.56;96.64;99701.03;5071875;28;20048;-46
2024/01/14 06:53:45;;;;;;;43.55;18.80;;;;;;;-1.62;98.34;99702.94;5072575;28;20766;-47
2024/01/14 06:56:16;;;;;;;47.70;19.20;;;;;;;-1.62;98.56;99700.31;5071359;28;20063;-43
2024/01/14 06:58:49;;;;;;;46.28;20.13;;;;;;;-1.68;100.00;99692.59;5072263;28;20414;-46
2024/01/14 07:01:18;;;;;;;41.42;18.85;;;;;;;-1.55;99.41;99694.91;5072314;28;20052;-45
2024/01/14 07:03:49;;;;;;;47.35;19.52;;;;;;;-1.64;100.00;99700.34;5071931;28;20140;-43
2024/01/14 07:06:17;;;;;;;44.60;19.15;;;;;;;-1.59;100.00;99697.63;5072409;28;20050;-43
2024/01/14 07:08:47;;;;;;;47.50;20.42;;;;;;;-1.60;100.00;99703.75;5072161;28;20044;-43
2024/01/14 07:11:15;;;;;;;44.10;18.27;;;;;;;-1.57;99.50;99703.69;5072955;28;20094;-43
2024/01/14 07:13:44;;;;;;;43.72;19.52;;;;;;;-1.55;100.00;99704.53;5072318;28;20048;-44
2024/01/14 07:16:13;;;;;;;47.78;20.92;;;;;;;-1.54;100.00;99714.13;5073149;28;20181;-43
2024/01/14 07:18:45;;;;;;;47.88;20.77;;;;;;;-1.57;100.00;99707.16;5072904;28;20052;-43
2024/01/14 07:21:14;;;;;;;45.40;19.95;;;;;;;-1.57;100.00;99703.69;5072641;28;20128;-43
2024/01/14 07:23:43;;;;;;;47.17;19.80;;;;;;;-1.52;100.00;99709.72;5072428;28;20339;-44
2024/01/14 07:26:16;;;;;;;38.03;17.67;;;;;;;-1.55;100.00;99697.53;5072705;28;20060;-48
2024/01/14 07:28:45;;;;;;;46.00;19.35;;;;;;;-1.60;100.00;99702.00;5073517;28;20366;-42
2024/01/14 07:31:20;;;;;;;44.92;19.77;;;;;;;-1.52;100.00;99691.41;5072959;28;20047;-42
2024/01/14 07:33:51;;;;;;;48.65;19.13;;;;;;;-1.47;100.00;99695.63;5075155;28;20044;-43
2024/01/14 07:36:20;;;;;;;45.70;19.67;;;;;;;-1.48;100.00;99693.03;5073971;28;20076;-45
2024/01/14 07:38:53;;;;;;;47.92;20.35;;;;;;;-1.39;100.00;99703.31;5073645;28;20059;-46
2024/01/14 07:41:21;;;;;;;44.38;19.42;;;;;;;-1.51;100.00;99690.50;5072374;28;20052;-44
2024/01/14 07:43:50;;;;;;;45.38;19.88;;;;;;;-1.43;100.00;99690.34;5072507;28;20049;-44
2024/01/14 07:46:20;;;;;;;46.13;19.40;;;;;;;-1.35;100.00;99702.41;5072744;28;20124;-43
2024/01/14 07:48:49;;;;;;;44.08;18.52;;;;;;;-1.43;100.00;99696.44;5072797;28;20044;-44
2024/01/14 07:51:17;;;;;;;46.97;18.75;;;;;;;-1.41;100.00;99702.50;5075644;28;20127;-46
2024/01/14 07:53:49;;;;;;;41.28;18.50;;;;;;;-1.27;99.93;99703.06;5077502;28;20064;-44
2024/01/14 07:56:17;;;;;;;42.22;18.25;;;;;;;-1.31;99.86;99698.81;5076005;28;20045;-44
2024/01/14 07:58:45;;;;;;;41.85;17.98;;;;;;;-1.29;100.00;99704.00;5076599;28;20443;-44
2024/01/14 08:01:17;;;;;;;50.80;20.42;;;;;;;-1.19;100.00;99706.38;5074809;28;20051;-44
2024/01/14 08:03:48;;;;;;;45.80;20.00;;;;;;;-1.19;100.00;99700.28;5076049;28;20405;-42
2024/01/14 08:06:21;;;;;;;50.67;20.33;;;;;;;-1.13;99.08;99704.56;5076104;28;20132;-42
2024/01/14 08:08:49;;;;;;;42.63;18.90;;;;;;;-1.14;99.86;99697.59;5076245;28;20044;-42
2024/01/14 08:11:18;;;;;;;43.90;18.83;;;;;;;-1.04;99.15;99704.34;5076334;28;20045;-49
2024/01/14 08:13:46;;;;;;;43.42;18.35;;;;;;;-0.99;97.51;99703.34;5076842;28;20050;-44
2024/01/14 08:16:18;;;;;;;40.63;18.65;;;;;;;-1.11;97.76;99708.00;5077072;28;20456;-44
2024/01/14 08:18:55;;;;;;;44.58;17.45;;;;;;;-0.97;97.09;99705.91;5076184;28;20048;-44
2024/01/14 08:21:23;;;;;;;44.17;18.75;;;;;;;-0.91;96.49;99701.41;5075223;28;20045;-42
2024/01/14 08:23:55;;;;;;;42.47;18.88;;;;;;;-0.77;95.89;99708.97;5076354;28;20049;-43
2024/01/14 08:26:23;;;;;;;38.20;17.25;;;;;;;-0.76;93.56;99702.00;5074659;28;20045;-43
2024/01/14 08:28:51;;;;;;;33.92;15.32;;;;;;;-0.66;92.82;99703.50;5074526;28;20053;-43
2024/01/14 08:31:19;;;;;;;42.17;15.20;;;;;;;-0.59;92.19;99716.38;5074411;28;20045;-44
2024/01/14 08:33:48;;;;;;;41.80;17.88;;;;;;;-0.46;91.18;99708.25;5074873;28;20140;-43
2024/01/14 08:36:21;;;;;;;38.00;16.60;;;;;;;-0.35;90.27;99712.34;5074324;28;20123;-42
2024/01/14 08:38:49;;;;;;;36.35;15.93;;;;;;;-0.27;88.62;99706.06;5074837;28;20135;-42
2024/01/14 08:41:24;;;;;;;42.70;17.83;;;;;;;-0.12;87.60;99722.25;5073904;28;20090;-44
2024/01/14 08:43:55;;;;;;;38.13;15.07;;;;;;;-0.10;87.36;99733.53;5074415;28;20482;-45
2024/01/14 08:46:24;;;;;;;33.63;15.32;;;;;;;0.02;87.09;99732.41;5074460;28;20400;-43
2024/01/14 08:48:53;;;;;;;32.25;15.50;;;;;;;0.12;85.61;99731.25;5073963;28;20106;-42
2024/01/14 08:51:23;;;;;;;35.67;15.55;;;;;;;0.18;85.48;99733.69;5072428;28;20482;-44
2024/01/14 08:53:51;;;;;;;36.90;15.00;;;;;;;0.31;85.15;99725.53;5073922;28;20063;-43
2024/01/14 08:56:20;;;;;;;34.20;15.15;;;;;;;0.23;85.28;99730.97;5075185;28;20040;-44
2024/01/14 08:58:48;;;;;;;32.92;14.52;;;;;;;0.37;84.54;99727.97;5074436;28;20140;-45
2024/01/14 09:01:17;;;;;;;31.25;14.02;;;;;;;0.56;83.38;99734.44;5074217;28;20044;-44
2024/01/14 09:03:46;;;;;;;30.13;14.18;;;;;;;0.64;83.01;99735.09;5073350;28;20044;-44
2024/01/14 09:06:14;;;;;;;34.45;13.60;;;;;;;0.73;82.18;99737.47;5073643;28;20458;-43
2024/01/14 09:08:44;;;;;;;33.20;14.55;;;;;;;0.90;81.42;99744.00;5073153;28;20060;-42
2024/01/14 09:11:14;;;;;;;30.50;13.07;;;;;;;0.92;80.57;99743.03;5073007;28;20673;-43
2024/01/14 09:13:42;;;;;;;28.02;12.45;;;;;;;0.93;79.61;99738.66;5073136;28;20056;-44
2024/01/14 09:16:13;;;;;;;27.25;12.85;;;;;;;1.00;79.65;99732.31;5072865;28;20051;-43
2024/01/14 09:18:42;;;;;;;29.73;12.35;;;;;;;0.98;79.08;99737.63;5072038;28;20459;-44
2024/01/14 09:21:10;;;;;;;30.98;12.45;;;;;;;1.02;78.49;99736.63;5072224;28;20102;-44
2024/01/14 09:23:38;;;;;;;28.20;12.45;;;;;;;1.10;79.09;99741.66;5071667;28;20083;-44
2024/01/14 09:26:08;;;;;;;28.52;13.15;;;;;;;1.07;78.38;99739.97;5072059;28;20041;-42
2024/01/14 09:28:37;;;;;;;22.70;10.70;;;;;;;1.02;77.93;99739.25;5072701;28;20052;-45
2024/01/14 09:31:06;;;;;;;42.65;20.08;;;;;;;1.13;79.50;99745.03;5072773;28;20055;-43
2024/01/14 09:33:35;;;;;;;59.22;26.80;;;;;;;1.11;79.37;99744.22;5071343;28;20052;-44
2024/01/14 09:36:06;;;;;;;30.23;13.55;;;;;;;1.04;79.29;99731.31;5072458;28;20051;-47
2024/01/14 09:38:35;;;;;;;29.52;12.27;;;;;;;1.05;78.98;99735.66;5072632;28;20091;-43
2024/01/14 09:41:21;;;;;;;39.05;16.60;;;;;;;1.09;78.84;99725.03;5072507;28;20064;-44
2024/01/14 09:43:52;;;;;;;29.70;13.18;;;;;;;1.08;79.18;99723.31;5072247;28;20051;-43
2024/01/14 09:46:20;;;;;;;24.85;12.35;;;;;;;1.05;79.28;99712.00;5072470;28;20144;-44
2024/01/14 09:48:49;;;;;;;26.67;12.18;;;;;;;1.11;79.55;99712.69;5072311;28;20485;-44
2024/01/14 09:51:19;;;;;;;25.77;12.10;;;;;;;1.22;78.87;99714.13;5072239;28;20045;-43
2024/01/14 09:53:47;;;;;;;22.77;11.32;;;;;;;1.36;78.34;99712.81;5072443;28;20044;-44
2024/01/14 09:56:18;;;;;;;26.80;11.93;;;;;;;1.29;78.09;99705.16;5072397;28;20044;-45
2024/01/14 09:58:53;;;;;;;26.88;11.85;;;;;;;1.20;77.37;99706.31;5072217;28;20051;-43
2024/01/14 10:01:24;;;;;;;24.80;11.55;;;;;;;1.34;77.56;99692.72;5072376;28;20049;-45
2024/01/14 10:03:53;;;;;;;23.08;10.90;;;;;;;1.15;77.91;99692.44;5072438;28;20045;-46
2024/01/14 10:06:21;;;;;;;26.10;10.88;;;;;;;1.19;78.26;99687.97;5072078;28;20064;-45
2024/01/14 10:08:50;;;;;;;23.35;10.68;;;;;;;1.26;78.24;99689.50;5072263;28;20125;-44
2024/01/14 10:11:23;;;;;;;23.42;10.82;;;;;;;1.21;78.00;99691.41;5071851;28;20044;-43
2024/01/14 10:13:54;;;;;;;23.30;10.40;;;;;;;1.25;77.57;99698.28;5071485;28;20051;-45
2024/01/14 10:16:23;;;;;;;25.02;11.27;;;;;;;1.28;77.84;99690.31;5071837;28;20049;-45
2024/01/14 10:19:11;;;;;;;24.20;10.55;;;;;;;1.39;77.05;99672.44;5071929;28;20425;-48
2024/01/14 10:21:42;;;;;;;29.65;11.95;;;;;;;1.44;77.10;99673.13;5071993;28;20105;-44
2024/01/14 10:24:11;;;;;;;23.73;10.90;;;;;;;1.38;76.82;99671.59;5070827;28;20459;-45
2024/01/14 10:26:42;;;;;;;20.38;10.05;;;;;;;1.33;77.01;99667.38;5072451;28;20504;-44
2024/01/14 10:29:11;;;;;;;22.90;10.32;;;;;;;1.37;76.80;99663.75;5072724;28;20048;-44
2024/01/14 10:31:39;;;;;;;19.83;9.85;;;;;;;1.35;77.13;99668.16;5072487;28;20470;-43
2024/01/14 10:34:07;;;;;;;23.63;10.70;;;;;;;1.43;76.88;99666.16;5072328;28;20052;-43
2024/01/14 10:36:38;;;;;;;23.60;10.75;;;;;;;1.45;76.86;99667.00;5072205;28;20417;-45
2024/01/14 10:39:10;;;;;;;28.48;11.88;;;;;;;1.65;76.61;99661.09;5072125;28;20153;-46
2024/01/14 10:41:41;;;;;;;22.27;10.18;;;;;;;1.88;75.21;99652.41;5071930;28;20041;-44
2024/01/14 10:44:12;;;;;;;19.85;10.20;;;;;;;1.76;74.99;99656.31;5072174;28;20093;-43
2024/01/14 10:46:47;;;;;;;16.38;8.18;;;;;;;1.60;74.55;99637.56;5072588;28;20085;-43
2024/01/14 10:49:18;;;;;;;18.48;8.55;;;;;;;1.64;74.68;99633.94;5070943;28;20432;-46
2024/01/14 10:51:52;;;;;;;15.52;7.97;;;;;;;1.84;73.45;99630.63;5072342;28;20056;-44
2024/01/14 10:54:28;;;;;;;19.70;8.15;;;;;;;1.76;73.60;99631.81;5072552;28;20052;-46
2024/01/14 10:57:09;;;;;;;18.38;7.90;;;;;;;1.83;72.91;99634.16;5071687;28;20110;-43
2024/01/14 10:59:38;;;;;;;18.13;8.00;;;;;;;1.75;72.74;99635.34;5070934;28;20086;-43
2024/01/14 11:02:16;;;;;;;18.67;8.77;;;;;;;1.85;72.47;99621.81;5072461;28;20049;-44
2024/01/14 11:04:45;;;;;;;17.98;8.45;;;;;;;1.79;72.80;99621.16;5072286;28;20094;-44
2024/01/14 11:07:13;;;;;;;19.67;8.85;;;;;;;2.01;72.54;99627.38;5072136;28;20045;-43
2024/01/14 11:09:44;;;;;;;21.33;8.57;;;;;;;2.00;72.06;99620.41;5072319;28;20056;-45
2024/01/14 11:12:22;;;;;;;17.27;7.85;;;;;;;2.05;71.48;99626.38;5071187;28;20058;-44
2024/01/14 11:15:14;;;;;;;19.88;8.40;;;;;;;1.84;72.49;99624.50;5071249;28;20178;-45
2024/01/14 11:17:53;;;;;;;19.48;9.25;;;;;;;1.91;71.74;99618.97;5073644;28;20049;-45
2024/01/14 11:20:31;;;;;;;20.77;9.18;;;;;;;1.99;71.42;99613.44;5071826;28;20052;-43
2024/01/14 11:23:21;;;;;;;20.02;9.60;;;;;;;2.16;71.37;99626.00;5071721;28;20063;-43
2024/01/14 11:25:50;;;;;;;18.38;9.00;;;;;;;2.09;70.98;99624.50;5073355;28;20056;-45
2024/01/14 11:28:21;;;;;;;22.52;9.32;;;;;;;2.17;71.08;99614.56;5074980;28;20041;-46
2024/01/14 11:30:55;;;;;;;22.58;9.20;;;;;;;2.24;70.97;99619.56;5075174;28;20048;-46